createdAt,value
2019-01-25T00:02:00.689Z,100659.00
2019-01-25T00:04:31.070Z,100668.00
2019-01-25T00:07:01.430Z,100661.00
2019-01-25T00:09:31.826Z,100660.00
2019-01-25T00:12:02.792Z,100662.00
2019-01-25T00:14:33.149Z,100664.00
2019-01-25T00:17:03.549Z,100659.00
2019-01-25T00:19:33.927Z,100665.00
2019-01-25T00:22:05.354Z,100664.00
2019-01-25T00:24:35.789Z,100682.00
2019-01-25T00:27:06.478Z,100668.00
2019-01-25T00:29:36.880Z,100678.00
2019-01-25T00:32:07.187Z,100674.00
2019-01-25T00:34:37.611Z,100666.00
2019-01-25T00:37:07.991Z,100666.00
2019-01-25T00:39:38.390Z,100661.00
2019-01-25T00:42:08.996Z,100667.00
2019-01-25T00:44:39.402Z,100657.00
2019-01-25T00:47:09.782Z,100665.00
2019-01-25T00:49:40.157Z,100657.00
2019-01-25T00:52:10.760Z,100665.00
2019-01-25T00:54:41.134Z,100656.00
2019-01-25T00:57:11.605Z,100665.00
2019-01-25T00:59:42.058Z,100661.00
2019-01-25T01:02:12.384Z,100657.00
2019-01-25T01:04:42.818Z,100665.00
2019-01-25T01:07:13.222Z,100666.00
2019-01-25T01:09:43.617Z,100661.00
2019-01-25T01:12:14.026Z,100661.00
2019-01-25T01:14:44.412Z,100662.00
2019-01-25T01:17:14.844Z,100654.00
2019-01-25T01:19:45.343Z,100658.00
2019-01-25T01:22:15.840Z,100661.00
2019-01-25T01:24:46.192Z,100659.00
2019-01-25T01:27:16.839Z,100664.00
2019-01-25T01:29:47.267Z,100659.00
2019-01-25T01:32:17.703Z,100667.00
2019-01-25T01:34:48.094Z,100656.00
2019-01-25T01:37:18.516Z,100656.00
2019-01-25T01:39:48.850Z,100667.00
2019-01-25T01:42:19.251Z,100659.00
2019-01-25T01:44:49.544Z,100660.00
2019-01-25T01:47:20.020Z,100657.00
2019-01-25T01:49:50.381Z,100657.00
2019-01-25T01:52:21.186Z,100667.00
2019-01-25T01:54:54.334Z,100670.00
2019-01-25T01:57:24.697Z,100660.00
2019-01-25T01:59:55.338Z,100655.00
2019-01-25T02:02:25.667Z,100658.00
2019-01-25T02:04:56.235Z,100660.00
2019-01-25T02:07:26.708Z,100665.00
2019-01-25T02:09:57.095Z,100663.00
2019-01-25T02:12:27.525Z,100658.00
2019-01-25T02:14:57.960Z,100664.00
2019-01-25T02:17:28.490Z,100656.00
2019-01-25T02:19:58.851Z,100665.00
2019-01-25T02:22:29.295Z,100655.00
2019-01-25T02:24:59.601Z,100670.00
2019-01-25T02:27:30.309Z,100655.00
2019-01-25T02:30:00.773Z,100659.00
2019-01-25T02:32:31.301Z,100651.00
2019-01-25T02:35:01.665Z,100655.00
2019-01-25T02:37:32.136Z,100660.00
2019-01-25T02:40:02.559Z,100660.00
2019-01-25T02:42:33.376Z,100663.00
2019-01-25T02:45:03.762Z,100657.00
2019-01-25T02:47:34.183Z,100662.00
2019-01-25T02:50:05.211Z,100664.00
2019-01-25T02:52:35.613Z,100655.00
2019-01-25T02:55:07.836Z,100664.00
2019-01-25T02:57:38.155Z,100662.00
2019-01-25T03:00:19.967Z,100666.00
2019-01-25T03:02:50.561Z,100663.00
2019-01-25T03:05:21.616Z,100670.00
2019-01-25T03:07:52.160Z,100671.00
2019-01-25T03:10:28.717Z,100667.00
2019-01-25T03:12:55.815Z,100677.00
2019-01-25T03:15:27.508Z,100668.00
2019-01-25T03:17:58.017Z,100675.00
2019-01-25T03:20:28.653Z,100664.00
2019-01-25T03:22:59.104Z,100670.00
2019-01-25T03:25:29.726Z,100673.00
2019-01-25T03:28:00.093Z,100670.00
2019-01-25T03:30:30.462Z,100675.00
2019-01-25T03:33:00.929Z,100667.00
2019-01-25T03:35:31.369Z,100669.00
2019-01-25T03:38:01.829Z,100665.00
2019-01-25T03:40:32.381Z,100659.00
2019-01-25T03:43:02.722Z,100673.00
2019-01-25T03:45:33.243Z,100666.00
2019-01-25T03:48:03.708Z,100675.00
2019-01-25T03:50:34.089Z,100672.00
2019-01-25T03:53:04.405Z,100668.00
2019-01-25T03:55:34.814Z,100678.00
2019-01-25T03:58:05.473Z,100672.00
2019-01-25T04:00:35.885Z,100663.00
2019-01-25T04:03:06.530Z,100667.00
2019-01-25T04:05:36.923Z,100681.00
2019-01-25T04:08:07.367Z,100669.00
2019-01-25T04:10:41.231Z,100671.00
2019-01-25T04:13:11.780Z,100683.00
2019-01-25T04:15:42.572Z,100679.00
2019-01-25T04:18:13.181Z,100680.00
2019-01-25T04:20:43.856Z,100670.00
2019-01-25T04:23:14.249Z,100675.00
2019-01-25T04:25:45.167Z,100681.00
2019-01-25T04:28:15.751Z,100677.00
2019-01-25T04:30:46.164Z,100678.00
2019-01-25T04:33:16.955Z,100684.00
2019-01-25T04:35:47.381Z,100684.00
2019-01-25T04:38:17.948Z,100688.00
2019-01-25T04:40:48.516Z,100685.00
2019-01-25T04:43:18.937Z,100680.00
2019-01-25T04:45:49.634Z,100683.00
2019-01-25T04:48:20.077Z,100678.00
2019-01-25T04:50:50.732Z,100684.00
2019-01-25T04:53:21.082Z,100679.00
2019-01-25T04:55:51.785Z,100681.00
2019-01-25T04:58:22.417Z,100681.00
2019-01-25T05:00:52.873Z,100685.00
2019-01-25T05:03:23.286Z,100691.00
2019-01-25T05:05:53.711Z,100687.00
2019-01-25T05:08:23.956Z,100693.00
2019-01-25T05:10:54.385Z,100695.00
2019-01-25T05:13:24.670Z,100688.00
2019-01-25T05:15:55.182Z,100681.00
2019-01-25T05:18:25.561Z,100694.00
2019-01-25T05:20:55.874Z,100693.00
2019-01-25T05:23:26.285Z,100708.00
2019-01-25T05:26:10.035Z,100708.00
2019-01-25T05:28:40.351Z,100715.00
2019-01-25T05:31:10.677Z,100714.00
2019-01-25T05:33:41.031Z,100728.00
2019-01-25T05:36:11.339Z,100725.00
2019-01-25T05:38:46.609Z,100730.00
2019-01-25T05:41:16.914Z,100732.00
2019-01-25T05:43:47.293Z,100717.00
2019-01-25T05:46:17.562Z,100723.00
2019-01-25T05:48:47.832Z,100712.00
2019-01-25T05:51:18.197Z,100725.00
2019-01-25T05:53:52.891Z,100729.00
2019-01-25T05:56:23.767Z,100718.00
2019-01-25T05:58:54.209Z,100728.00
2019-01-25T06:01:24.614Z,100728.00
2019-01-25T06:03:54.940Z,100723.00
2019-01-25T06:06:25.301Z,100737.00
2019-01-25T06:08:55.759Z,100732.00
2019-01-25T06:11:26.179Z,100733.00
2019-01-25T06:13:56.467Z,100726.00
2019-01-25T06:16:26.745Z,100719.00
2019-01-25T06:18:57.028Z,100727.00
2019-01-25T06:21:27.306Z,100726.00
2019-01-25T06:23:57.661Z,100734.00
2019-01-25T06:26:27.857Z,100735.00
2019-01-25T06:28:58.261Z,100728.00
2019-01-25T06:31:28.468Z,100732.00
2019-01-25T06:33:58.699Z,100736.00
2019-01-25T06:36:29.147Z,100732.00
2019-01-25T06:39:00.429Z,100736.00
2019-01-25T06:41:30.619Z,100739.00
2019-01-25T06:44:00.890Z,100736.00
2019-01-25T06:46:31.055Z,100745.00
2019-01-25T06:49:01.213Z,100752.00
2019-01-25T06:51:31.339Z,100746.00
2019-01-25T06:54:01.602Z,100746.00
2019-01-25T06:56:31.761Z,100737.00
2019-01-25T06:59:23.575Z,100737.00
2019-01-25T07:02:04.611Z,100742.00
2019-01-25T07:04:34.905Z,100746.00
2019-01-25T07:07:07.571Z,100745.00
2019-01-25T07:09:37.721Z,100750.00
2019-01-25T07:12:07.913Z,100746.00
2019-01-25T07:14:39.477Z,100743.00
2019-01-25T07:17:09.781Z,100741.00
2019-01-25T07:19:40.099Z,100745.00
2019-01-25T07:22:10.524Z,100746.00
2019-01-25T07:24:41.353Z,100736.00
2019-01-25T07:27:12.839Z,100737.00
2019-01-25T07:29:43.334Z,100735.00
2019-01-25T07:32:13.948Z,100734.00
2019-01-25T07:34:44.607Z,100734.00
2019-01-25T07:37:15.243Z,100726.00
2019-01-25T07:39:46.888Z,100733.00
2019-01-25T07:42:17.381Z,100729.00
2019-01-25T07:44:47.837Z,100728.00
2019-01-25T07:47:18.338Z,100749.00
2019-01-25T07:49:49.112Z,100735.00
2019-01-25T07:52:19.864Z,100742.00
2019-01-25T07:54:50.362Z,100744.00
2019-01-25T07:57:21.024Z,100741.00
2019-01-25T07:59:51.588Z,100745.00
2019-01-25T08:02:22.308Z,100736.00
2019-01-25T08:04:52.829Z,100751.00
2019-01-25T08:07:23.512Z,100753.00
2019-01-25T08:09:54.253Z,100742.00
2019-01-25T08:12:24.860Z,100754.00
2019-01-25T08:14:55.287Z,100759.00
2019-01-25T08:17:26.003Z,100769.00
2019-01-25T08:19:56.723Z,100776.00
2019-01-25T08:22:27.787Z,100769.00
2019-01-25T08:24:58.623Z,100765.00
2019-01-25T08:27:29.551Z,100764.00
2019-01-25T08:30:00.414Z,100769.00
2019-01-25T08:32:31.162Z,100753.00
2019-01-25T08:35:01.843Z,100755.00
2019-01-25T08:37:32.612Z,100749.00
2019-01-25T08:40:03.226Z,100752.00
2019-01-25T08:42:33.924Z,100762.00
2019-01-25T08:45:05.089Z,100767.00
2019-01-25T08:47:37.127Z,100784.00
2019-01-25T08:50:11.777Z,100765.00
2019-01-25T08:52:42.610Z,100768.00
2019-01-25T08:55:13.328Z,100762.00
2019-01-25T08:57:44.223Z,100759.00
2019-01-25T09:00:18.031Z,100754.00
2019-01-25T09:02:48.552Z,100751.00
2019-01-25T09:05:20.351Z,100743.00
2019-01-25T09:07:51.024Z,100741.00
2019-01-25T09:10:21.622Z,100744.00
2019-01-25T09:12:52.178Z,100739.00
2019-01-25T09:15:25.188Z,100741.00
2019-01-25T09:17:55.715Z,100760.00
2019-01-25T09:20:26.221Z,100758.00
2019-01-25T09:22:56.673Z,100764.00
2019-01-25T09:25:27.643Z,100746.00
2019-01-25T09:27:58.656Z,100751.00
2019-01-25T09:30:29.275Z,100760.00
2019-01-25T09:32:59.982Z,100764.00
2019-01-25T09:35:30.595Z,100771.00
2019-01-25T09:38:01.342Z,100767.00
2019-01-25T09:40:32.128Z,100773.00
2019-01-25T09:43:02.813Z,100775.00
2019-01-25T09:45:33.745Z,100766.00
2019-01-25T09:48:04.548Z,100769.00
2019-01-25T09:50:35.078Z,100768.00
2019-01-25T09:53:06.162Z,100772.00
2019-01-25T09:55:36.726Z,100769.00
2019-01-25T09:58:09.802Z,100769.00
2019-01-25T10:00:53.510Z,100762.00
2019-01-25T10:03:24.094Z,100771.00
2019-01-25T10:05:54.490Z,100767.00
2019-01-25T10:08:25.228Z,100757.00
2019-01-25T10:10:55.846Z,100766.00
2019-01-25T10:13:26.612Z,100752.00
2019-01-25T10:15:57.607Z,100754.00
2019-01-25T10:18:27.910Z,100742.00
2019-01-25T10:20:58.526Z,100742.00
2019-01-25T10:23:29.170Z,100757.00
2019-01-25T10:26:00.310Z,100745.00
2019-01-25T10:28:30.996Z,100736.00
2019-01-25T10:31:01.394Z,100734.00
2019-01-25T10:33:31.888Z,100739.00
2019-01-25T10:36:02.284Z,100743.00
2019-01-25T10:38:32.904Z,100746.00
2019-01-25T10:41:03.429Z,100734.00
2019-01-25T10:43:34.086Z,100734.00
2019-01-25T10:46:04.980Z,100728.00
2019-01-25T10:48:35.394Z,100730.00
2019-01-25T10:51:06.006Z,100715.00
2019-01-25T10:53:36.717Z,100718.00
2019-01-25T10:56:07.799Z,100719.00
2019-01-25T10:58:38.158Z,100713.00
2019-01-25T11:01:09.810Z,100723.00
2019-01-25T11:03:40.342Z,100719.00
2019-01-25T11:06:11.168Z,100713.00
2019-01-25T11:08:41.718Z,100724.00
2019-01-25T11:11:12.309Z,100726.00
2019-01-25T11:13:43.164Z,100720.00
2019-01-25T11:16:13.742Z,100718.00
2019-01-25T11:18:44.354Z,100721.00
2019-01-25T11:21:14.777Z,100721.00
2019-01-25T11:23:45.278Z,100720.00
2019-01-25T11:26:16.151Z,100705.00
2019-01-25T11:28:46.754Z,100705.00
2019-01-25T11:31:17.476Z,100703.00
2019-01-25T11:33:47.781Z,100703.00
2019-01-25T11:36:20.167Z,100688.00
2019-01-25T11:38:50.836Z,100679.00
2019-01-25T11:41:21.539Z,100694.00
2019-01-25T11:43:52.052Z,100680.00
2019-01-25T11:46:22.634Z,100674.00
2019-01-25T11:48:53.064Z,100682.00
2019-01-25T11:51:23.665Z,100685.00
2019-01-25T11:53:54.194Z,100671.00
2019-01-25T11:56:24.980Z,100662.00
2019-01-25T11:58:55.399Z,100666.00
2019-01-25T12:01:26.099Z,100669.00
2019-01-25T12:03:56.654Z,100657.00
2019-01-25T12:06:27.389Z,100652.00
2019-01-25T12:08:57.797Z,100644.00
2019-01-25T12:11:28.363Z,100641.00
2019-01-25T12:13:58.826Z,100651.00
2019-01-25T12:16:29.407Z,100648.00
2019-01-25T12:18:59.871Z,100637.00
2019-01-25T12:21:30.269Z,100637.00
2019-01-25T12:24:00.745Z,100634.00
2019-01-25T12:26:31.471Z,100623.00
2019-01-25T12:29:02.077Z,100627.00
2019-01-25T12:31:32.677Z,100642.00
2019-01-25T12:34:03.254Z,100642.00
2019-01-25T12:36:33.718Z,100638.00
2019-01-25T12:39:06.800Z,100643.00
2019-01-25T12:41:37.240Z,100632.00
2019-01-25T12:44:07.683Z,100644.00
2019-01-25T12:46:38.214Z,100648.00
2019-01-25T12:49:09.324Z,100645.00
2019-01-25T12:51:47.969Z,100643.00
2019-01-25T12:54:18.822Z,100638.00
2019-01-25T12:56:49.421Z,100639.00
2019-01-25T12:59:19.876Z,100628.00
2019-01-25T13:01:51.464Z,100630.00
2019-01-25T13:04:22.012Z,100624.00
2019-01-25T13:06:52.424Z,100627.00
2019-01-25T13:09:22.816Z,100626.00
2019-01-25T13:11:53.335Z,100633.00
2019-01-25T13:14:24.066Z,100637.00
2019-01-25T13:16:54.654Z,100613.00
2019-01-25T13:19:25.283Z,100617.00
2019-01-25T13:21:55.961Z,100611.00
2019-01-25T13:24:26.493Z,100608.00
2019-01-25T13:26:57.310Z,100611.00
2019-01-25T13:29:27.826Z,100615.00
2019-01-25T13:31:58.297Z,100600.00
2019-01-25T13:34:28.991Z,100591.00
2019-01-25T13:36:59.558Z,100595.00
2019-01-25T13:39:30.195Z,100592.00
2019-01-25T13:42:00.669Z,100600.00
2019-01-25T13:44:31.188Z,100593.00
2019-01-25T13:47:01.680Z,100589.00
2019-01-25T13:49:32.174Z,100589.00
2019-01-25T13:52:02.738Z,100582.00
2019-01-25T13:54:33.503Z,100578.00
2019-01-25T13:57:04.075Z,100571.00
2019-01-25T13:59:34.599Z,100580.00
2019-01-25T14:02:05.305Z,100559.00
2019-01-25T14:04:35.870Z,100566.00
2019-01-25T14:07:06.346Z,100563.00
2019-01-25T14:09:37.006Z,100564.00
2019-01-25T14:12:08.663Z,100570.00
2019-01-25T14:14:39.183Z,100555.00
2019-01-25T14:17:09.485Z,100555.00
2019-01-25T14:19:39.903Z,100558.00
2019-01-25T14:22:10.365Z,100562.00
2019-01-25T14:24:40.919Z,100567.00
2019-01-25T14:27:11.566Z,100556.00
2019-01-25T14:29:41.979Z,100561.00
2019-01-25T14:32:12.534Z,100565.00
2019-01-25T14:34:42.947Z,100556.00
2019-01-25T14:37:13.475Z,100541.00
2019-01-25T14:39:44.157Z,100557.00
2019-01-25T14:42:15.535Z,100537.00
2019-01-25T14:44:46.246Z,100532.00
2019-01-25T14:47:16.675Z,100540.00
2019-01-25T14:49:47.174Z,100537.00
2019-01-25T14:52:17.781Z,100528.00
2019-01-25T14:54:48.522Z,100533.00
2019-01-25T14:57:19.113Z,100522.00
2019-01-25T14:59:49.754Z,100539.00
2019-01-25T15:02:20.335Z,100538.00
2019-01-25T15:04:51.051Z,100534.00
2019-01-25T15:07:21.760Z,100527.00
2019-01-25T15:09:52.606Z,100534.00
2019-01-25T15:12:22.996Z,100532.00
2019-01-25T15:14:53.490Z,100528.00
2019-01-25T15:17:24.131Z,100532.00
2019-01-25T15:19:57.505Z,100529.00
2019-01-25T15:22:28.113Z,100520.00
2019-01-25T15:24:58.722Z,100518.00
2019-01-25T15:27:29.538Z,100508.00
2019-01-25T15:30:00.380Z,100518.00
2019-01-25T15:32:31.099Z,100518.00
2019-01-25T15:35:01.624Z,100509.00
2019-01-25T15:37:32.359Z,100508.00
2019-01-25T15:40:02.711Z,100503.00
2019-01-25T15:42:33.204Z,100515.00
2019-01-25T15:45:03.954Z,100515.00
2019-01-25T15:47:34.333Z,100502.00
2019-01-25T15:50:07.562Z,100509.00
2019-01-25T15:52:37.790Z,100492.00
2019-01-25T15:55:08.394Z,100489.00
2019-01-25T15:57:38.758Z,100488.00
2019-01-25T16:00:13.654Z,100486.00
2019-01-25T16:02:44.665Z,100479.00
2019-01-25T16:05:16.717Z,100485.00
2019-01-25T16:07:47.423Z,100485.00
2019-01-25T16:10:19.327Z,100471.00
2019-01-25T16:12:49.832Z,100483.00
2019-01-25T16:15:28.413Z,100485.00
2019-01-25T16:17:58.781Z,100474.00
2019-01-25T16:20:29.002Z,100460.00
2019-01-25T16:22:59.645Z,100465.00
2019-01-25T16:25:32.129Z,100475.00
2019-01-25T16:28:02.386Z,100467.00
2019-01-25T16:30:35.117Z,100457.00
2019-01-25T16:33:05.618Z,100464.00
2019-01-25T16:35:35.999Z,100453.00
2019-01-25T16:38:06.907Z,100451.00
2019-01-25T16:40:37.244Z,100441.00
2019-01-25T16:43:09.413Z,100442.00
2019-01-25T16:45:44.595Z,100449.00
2019-01-25T16:48:14.800Z,100451.00
2019-01-25T16:50:45.092Z,100447.00
2019-01-25T16:53:15.691Z,100446.00
2019-01-25T16:55:46.046Z,100436.00
2019-01-25T16:58:16.349Z,100438.00
2019-01-25T17:00:48.175Z,100443.00
2019-01-25T17:03:19.056Z,100445.00
2019-01-25T17:05:49.339Z,100447.00
2019-01-25T17:08:20.130Z,100432.00
2019-01-25T17:10:50.501Z,100424.00
2019-01-25T17:13:21.716Z,100423.00
2019-01-25T17:15:53.774Z,100414.00
2019-01-25T17:18:24.002Z,100425.00
2019-01-25T17:20:54.364Z,100416.00
2019-01-25T17:23:24.708Z,100405.00
2019-01-25T17:25:55.142Z,100412.00
2019-01-25T17:28:25.452Z,100427.00
2019-01-25T17:30:55.753Z,100422.00
2019-01-25T17:33:26.164Z,100412.00
2019-01-25T17:35:56.406Z,100403.00
2019-01-25T17:38:26.786Z,100391.00
2019-01-25T17:40:57.084Z,100384.00
2019-01-25T17:43:27.492Z,100382.00
2019-01-25T17:45:57.886Z,100394.00
2019-01-25T17:48:28.176Z,100373.00
2019-01-25T17:50:58.492Z,100388.00
2019-01-25T17:53:28.925Z,100389.00
2019-01-25T17:55:59.287Z,100393.00
2019-01-25T17:58:30.014Z,100397.00
2019-01-25T18:01:00.339Z,100398.00
2019-01-25T18:03:30.689Z,100389.00
2019-01-25T18:06:00.957Z,100387.00
2019-01-25T18:08:31.319Z,100370.00
2019-01-25T18:11:01.758Z,100375.00
2019-01-25T18:13:31.993Z,100360.00
2019-01-25T18:16:02.305Z,100352.00
2019-01-25T18:18:33.723Z,100359.00
2019-01-25T18:21:04.001Z,100358.00
2019-01-25T18:23:34.322Z,100356.00
2019-01-25T18:26:11.157Z,100353.00
2019-01-25T18:28:47.272Z,100378.00
2019-01-25T18:31:20.876Z,100359.00
2019-01-25T18:33:51.300Z,100351.00
2019-01-25T18:36:21.578Z,100346.00
2019-01-25T18:38:52.224Z,100325.00
2019-01-25T18:41:22.621Z,100320.00
2019-01-25T18:43:53.110Z,100324.00
2019-01-25T18:46:23.369Z,100307.00
2019-01-25T18:48:53.800Z,100310.00
2019-01-25T18:51:24.162Z,100311.00
2019-01-25T18:53:54.798Z,100296.00
2019-01-25T18:56:26.569Z,100290.00
2019-01-25T18:58:57.228Z,100288.00
2019-01-25T19:01:27.569Z,100273.00
2019-01-25T19:03:57.972Z,100267.00
2019-01-25T19:06:28.431Z,100245.00
2019-01-25T19:08:58.898Z,100266.00
2019-01-25T19:11:29.256Z,100247.00
2019-01-25T19:13:59.596Z,100253.00
2019-01-25T19:16:30.003Z,100247.00
2019-01-25T19:19:00.755Z,100240.00
2019-01-25T19:21:32.817Z,100226.00
2019-01-25T19:24:03.217Z,100225.00
2019-01-25T19:26:37.978Z,100218.00
2019-01-25T19:29:08.342Z,100227.00
2019-01-25T19:31:38.806Z,100218.00
2019-01-25T19:34:09.391Z,100211.00
2019-01-25T19:36:39.839Z,100199.00
2019-01-25T19:39:13.157Z,100189.00
2019-01-25T19:41:43.585Z,100205.00
2019-01-25T19:44:16.638Z,100185.00
2019-01-25T19:46:47.326Z,100177.00
2019-01-25T19:49:17.780Z,100164.00
2019-01-25T19:51:48.234Z,100165.00
2019-01-25T19:54:18.580Z,100153.00
2019-01-25T19:56:48.941Z,100147.00
2019-01-25T19:59:19.543Z,100141.00
2019-01-25T20:01:49.902Z,100139.00
2019-01-25T20:04:21.968Z,100142.00
2019-01-25T20:06:52.334Z,100129.00
2019-01-25T20:09:22.724Z,100121.00
2019-01-25T20:11:53.190Z,100116.00
2019-01-25T20:14:23.665Z,100108.00
2019-01-25T20:16:54.052Z,100110.00
2019-01-25T20:19:24.810Z,100102.00
2019-01-25T20:21:55.194Z,100099.00
2019-01-25T20:24:25.678Z,100095.00
2019-01-25T20:26:56.009Z,100095.00
2019-01-25T20:29:26.460Z,100097.00
2019-01-25T20:31:56.796Z,100079.00
2019-01-25T20:34:27.157Z,100070.00
2019-01-25T20:36:57.612Z,100076.00
2019-01-25T20:39:28.025Z,100073.00
2019-01-25T20:42:02.616Z,100067.00
2019-01-25T20:44:33.169Z,100077.00
2019-01-25T20:47:03.774Z,100066.00
2019-01-25T20:49:34.143Z,100066.00
2019-01-25T20:52:04.711Z,100067.00
2019-01-25T20:54:35.044Z,100059.00
2019-01-25T20:57:07.175Z,100048.00
2019-01-25T20:59:37.570Z,100055.00
2019-01-25T21:02:08.347Z,100025.00
2019-01-25T21:04:39.101Z,100042.00
2019-01-25T21:07:09.591Z,100041.00
2019-01-25T21:09:40.159Z,100024.00
2019-01-25T21:12:32.131Z,100028.00
2019-01-25T21:15:08.661Z,100027.00
2019-01-25T21:17:39.456Z,100019.00
2019-01-25T21:20:19.417Z,100016.00
2019-01-25T21:22:50.088Z,100017.00
2019-01-25T21:25:20.507Z,100020.00
2019-01-25T21:27:50.887Z,100013.00
2019-01-25T21:30:26.485Z,99993.00
2019-01-25T21:32:57.581Z,99997.00
2019-01-25T21:35:30.268Z,99979.00
2019-01-25T21:38:00.889Z,99978.00
2019-01-25T21:40:32.563Z,99966.00
2019-01-25T21:43:02.922Z,99965.00
2019-01-25T21:45:42.728Z,99965.00
2019-01-25T21:48:13.249Z,99946.00
2019-01-25T21:50:44.656Z,99955.00
2019-01-25T21:53:15.015Z,99956.00
2019-01-25T21:55:45.434Z,99948.00
2019-01-25T21:58:16.180Z,99939.00
2019-01-25T22:00:46.583Z,99932.00
2019-01-25T22:03:16.876Z,99933.00
2019-01-25T22:05:47.245Z,99919.00
2019-01-25T22:08:17.599Z,99906.00
2019-01-25T22:10:49.642Z,99887.00
2019-01-25T22:13:20.024Z,99879.00
2019-01-25T22:15:51.264Z,99883.00
2019-01-25T22:18:21.988Z,99876.00
2019-01-25T22:20:52.362Z,99886.00
2019-01-25T22:23:22.673Z,99883.00
2019-01-25T22:25:57.036Z,99879.00
2019-01-25T22:28:28.699Z,99868.00
2019-01-25T22:31:01.035Z,99877.00
2019-01-25T22:33:33.443Z,99882.00
2019-01-25T22:36:04.164Z,99876.00
2019-01-25T22:38:35.761Z,99870.00
2019-01-25T22:41:06.244Z,99871.00
2019-01-25T22:43:36.621Z,99863.00
2019-01-25T22:46:07.093Z,99857.00
2019-01-25T22:48:37.479Z,99856.00
2019-01-25T22:51:08.565Z,99839.00
2019-01-25T22:54:19.123Z,99841.00
2019-01-25T22:56:49.657Z,99851.00
2019-01-25T22:59:20.254Z,99845.00
2019-01-25T23:01:50.585Z,99834.00
2019-01-25T23:04:50.759Z,99834.00
2019-01-25T23:07:27.336Z,99828.00
2019-01-25T23:10:03.449Z,99826.00
2019-01-25T23:12:33.787Z,99822.00
2019-01-25T23:15:05.351Z,99828.00
2019-01-25T23:17:36.860Z,99821.00
2019-01-25T23:22:45.009Z,99800.00
2019-01-25T23:25:16.899Z,99798.00
2019-01-25T23:27:53.419Z,99800.00
2019-01-25T23:30:23.766Z,99798.00
2019-01-25T23:32:54.077Z,99788.00
2019-01-25T23:35:24.457Z,99778.00
2019-01-25T23:37:54.875Z,99778.00
2019-01-25T23:40:25.331Z,99777.00
2019-01-25T23:42:55.810Z,99779.00
2019-01-25T23:45:26.315Z,99762.00
2019-01-25T23:47:56.834Z,99758.00
2019-01-25T23:50:27.166Z,99756.00
2019-01-25T23:52:57.487Z,99767.00
2019-01-25T23:55:27.770Z,99767.00
2019-01-25T23:57:58.089Z,99759.00
